TAF Text Data
IDs:
Format:
Raw Decoded Include METAR

Data at: 1059 UTC 15 Jul 2020

METAR for:LWSK (Skopje/Alexander the, --, MJ)
Text:LWSK 151030Z VRB02KT 9999 FEW050 29/12 Q1014 NOSIG
Temperature: 29.0°C ( 84°F)
Dewpoint: 12.0°C ( 54°F) [RH = 35%]
Pressure (altimeter):29.94 inches Hg (1014.0 mb)
Winds:variable direction winds at 2 MPH (2 knots; 1.0 m/s)
Visibility:6 or more sm (10+ km)
Ceiling:at least 12,000 feet AGL
Clouds: few clouds at 5000 feet AGL

TAF for:LWSK (Skopje/Alexander the, --, MJ) issued at 0830 UTC 15 Jul 2020
Text:TAF LWSK 150830Z 1509/1609 VRB03KT 9999 FEW050
Forecast period:0900 UTC 15 July 2020 to 0900 UTC 16 July 2020
Forecast type:FROM: standard forecast or significant change
Winds:variable direction winds at 3 MPH (3 knots; 1.5 m/s)
Visibility:6 or more sm (10+ km)
Ceiling:at least 12,000 feet AGL
Clouds: few clouds at 5000 feet AGL
Text:TEMPO 1509/1515 16012KT
Forecast period:0900 to 1500 UTC 15 July 2020
Forecast type:TEMPORARY: The following changes expected for less than half the time period
Winds:from the SSE (160 degrees) at 14 MPH (12 knots; 6.2 m/s)
Clouds:missing
Text:PROB30
Forecast period:1500 to 1800 UTC 15 July 2020
Forecast type:TEMPORARY: The following changes expected for less than half the time period
Winds:variable direction winds at 17 MPH (15 knots; 7.7 m/s)
Ceiling:at least 12,000 feet AGL
Clouds: few clouds at 3500 feet AGL, scattered clouds at 5000 feet AGL
Weather:SHRA (rain showers)